Latest Coastal Weather Observations for Cape Grim

IDT60701

Issued at 8:22 am EST Friday 19 August 2022 (issued every 10 minutes, with the page automatically refreshed every 10 minutes)

About coastal observations | Map of coastal stations | Coastal observations for TAS | Marine services | Other Formats
Station Details ID: 091331 Name: CAPE GRIM Lat: -40.68 Lon: 144.69 Height: 86.0 m
Data from the previous 72 hours. | See also: Recent months at Cape Grim
Date/Time
EST
Wind Sea
Height
m
Swell Vis
km
Cloud Weather Temp
°C
Press
MSL
hPa
Rain since
9am
mm
Dir  Spd
kts
Gust
kts
Height
m
Period
s
Dir
19/08:00am W 19 27 - - - - - Partly cloudy - 10.4 1009.5 4.4
19/07:54am W 17 27 - - - - - Partly cloudy - 10.4 1009.5 4.4
19/07:30am W 18 27 - - - - - Partly cloudy - 10.2 1009.0 4.4
19/07:05am W 18 28 - - - - - Partly cloudy - 10.2 1008.7 4.4
19/07:00am W 17 24 - - - - - Partly cloudy - 10.1 1008.7 4.4
19/06:30am W 18 27 - - - - - Partly cloudy - 10.2 1008.5 4.4
19/06:00am W 18 28 - - - - - Mostly cloudy - 10.2 1008.3 4.4
19/05:46am W 17 27 - - - - - Partly cloudy - 10.0 1008.1 4.4
19/05:30am W 17 25 - - - - - Partly cloudy - 10.3 1008.1 4.4
19/05:00am W 18 25 - - - - - Partly cloudy - 10.2 1008.0 4.4
19/04:30am W 17 24 - - - - - - - 9.9 1007.4 4.4
19/04:00am W 18 25 - - - - - Partly cloudy - 10.0 1007.2 4.4
19/03:44am W 18 28 - - - - - - - 9.7 1007.0 4.4
19/03:30am W 17 26 - - - - - Partly cloudy - 9.8 1007.0 4.4
19/03:00am W 17 25 - - - - - - Recent precip. 9.9 1006.8 4.4
19/02:30am W 18 24 - - - - - Partly cloudy - 9.8 1006.7 4.4
19/02:00am W 17 29 - - - - - Partly cloudy - 10.1 1006.5 4.0
19/01:54am W 17 29 - - - - - Partly cloudy - 10.0 1006.5 4.0
19/01:30am W 18 27 - - - - - Partly cloudy - 10.2 1006.4 4.0
19/01:00am W 19 31 - - - - - Partly cloudy - 9.9 1006.0 4.0
19/12:30am W 18 30 - - - - - Partly cloudy - 10.2 1005.7 4.0
19/12:28am W 19 30 - - - - - Partly cloudy - 10.3 1005.6 4.0
19/12:00am W 16 22 - - - - - Mostly cloudy - 10.5 1005.4 4.0
 
Date/Time
EST
Wind Sea
Height
m
Swell Vis
km
Cloud Weather Temp
°C
Press
MSL
hPa
Rain since
9am
mm
Dir  Spd
kts
Gust
kts
Height
m
Period
s
Dir
18/11:30pm W 18 25 - - - - - - - 10.6 1005.3 4.0
18/11:00pm W 20 30 - - - - - Partly cloudy - 10.8 1005.2 4.0
18/10:41pm W 19 29 - - - - - Partly cloudy - 10.7 1005.2 4.0
18/10:30pm W 18 25 - - - - - Partly cloudy - 10.9 1005.3 4.0
18/10:00pm W 18 25 - - - - - Partly cloudy - 11.0 1005.3 4.0
18/09:30pm W 18 28 - - - - - Partly cloudy - 11.1 1005.1 4.0
18/09:29pm W 18 28 - - - - - Partly cloudy - 11.1 1005.1 4.0
18/09:00pm W 18 27 - - - - - Cloudy - 11.1 1004.8 4.0
18/08:30pm W 17 23 - - - - - Partly cloudy - 11.2 1004.5 4.0
18/08:00pm W 17 26 - - - - - Partly cloudy - 11.1 1004.1 4.0
18/07:41pm W 19 29 - - - - - Partly cloudy - 11.3 1004.1 4.0
18/07:30pm W 22 30 - - - - - Partly cloudy - 11.3 1004.1 4.0
18/07:15pm W 19 29 - - - - - Partly cloudy - 11.1 1003.9 4.0
18/07:00pm W 19 25 - - - - - Partly cloudy - 11.1 1003.7 4.0
18/06:30pm W 17 23 - - - - - Partly cloudy - 11.0 1003.4 4.0
18/06:12pm W 15 25 - - - - - Partly cloudy - 11.0 1003.2 4.0
18/06:00pm W 17 24 - - - - - Cloudy Recent precip. 10.9 1002.9 4.0
18/05:30pm W 16 28 - - - - - Partly cloudy - 10.9 1002.5 3.8
18/05:00pm W 15 21 - - - - - Partly cloudy - 10.8 1002.0 3.4
18/04:30pm W 15 22 - - - - - Partly cloudy - 10.9 1001.8 3.0
18/04:00pm W 17 23 - - - - - Partly cloudy - 11.5 1001.5 3.0
18/03:36pm W 19 29 - - - - - Partly cloudy - 11.6 1001.2 3.0
18/03:30pm W 19 27 - - - - - Partly cloudy - 11.6 1001.1 3.0
18/03:00pm W 23 34 - - - - - Cloudy - 11.9 1000.5 3.0
18/02:45pm W 21 33 - - - - - Partly cloudy - 12.0 1000.1 3.0
18/02:30pm W 23 32 - - - - - Partly cloudy - 11.9 999.8 3.0
18/02:29pm W 23 32 - - - - - Partly cloudy - 12.1 999.9 3.0
18/02:00pm WNW 31 41 - - - - - Partly cloudy - 12.1 999.2 3.0
18/01:50pm WNW 27 38 - - - - - Partly cloudy - 12.5 999.1 3.0
18/01:30pm WNW 29 37 - - - - - Partly cloudy - 12.7 999.2 3.0
18/01:00pm WNW 33 43 - - - - - Partly cloudy - 12.7 999.0 3.0
18/12:30pm NW 31 41 - - - - - Partly cloudy - 13.3 998.9 3.0
18/12:00pm NW 31 42 - - - - - Mostly cloudy Recent precip. 13.3 999.0 3.0
18/11:39am NW 29 43 - - - - - Partly cloudy - 12.8 999.3 3.0
18/11:37am NW 28 43 - - - - - Partly cloudy - 12.7 999.2 3.0
18/11:34am NW 25 37 - - - - - Partly cloudy - 12.6 999.2 3.0
18/11:30am NW 25 31 - - - - - Partly cloudy - 12.4 999.3 3.0
18/11:00am WNW 28 45 - - - - - Partly cloudy - 9.2 999.9 2.6
18/10:56am NW 25 44 - - - - - Partly cloudy - 11.5 999.9 0.8
18/10:33am NW 27 37 - - - - - Partly cloudy - 13.0 999.5 0.0
18/10:30am NW 29 37 - - - - - Partly cloudy - 13.1 999.6 0.0
18/10:11am NNW 31 41 - - - - - Partly cloudy - 13.7 999.5 0.0
18/10:00am NNW 31 38 - - - - - Partly cloudy - 13.4 999.5 0.0
18/09:30am NNW 31 38 - - - - - Partly cloudy - 13.0 999.6 0.0
18/09:03am NNW 33 43 - - - - - Partly cloudy - 12.8 999.8 0.0
18/09:00am NNW 32 41 - - - - - Cloudy - 12.9 999.8 5.6
18/08:44am NNW 29 39 - - - - - Cloudy - 12.7 999.8 5.6
18/08:30am N 29 37 - - - - - Cloudy - 12.6 999.7 5.6
18/08:04am NNW 27 37 - - - - - Cloudy - 12.4 1000.0 5.6
18/08:00am NNW 26 32 - - - - - Cloudy - 12.3 1000.1 5.6
18/07:30am NNW 22 31 - - - - - Partly cloudy - 12.0 1000.4 5.6
18/07:00am NNW 22 29 - - - - - Partly cloudy - 11.9 1000.4 5.6
18/06:30am N 24 31 - - - - - Partly cloudy - 11.9 1000.8 5.6
18/06:00am NNW 23 32 - - - - - Cloudy - 12.4 1001.6 5.2
18/05:30am NNW 24 32 - - - - - Partly cloudy - 12.4 1001.8 5.2
18/05:00am NNW 26 31 - - - - - Partly cloudy - 12.5 1002.1 5.2
18/04:30am NNW 26 37 - - - - - Partly cloudy - 12.6 1002.5 5.2
18/04:27am NNW 25 36 - - - - - Partly cloudy - 12.6 1002.7 5.2
18/04:00am NNW 28 33 - - - - - Partly cloudy - 12.5 1002.7 5.2
18/03:30am NNW 29 35 - - - - - Cloudy - 12.3 1002.9 5.2
18/03:08am NNW 24 34 - - - - - Partly cloudy - 12.4 1003.2 5.2
18/03:00am NNW 21 27 - - - - - Cloudy - 12.3 1003.6 5.2
18/02:30am NNW 23 31 - - - - - Partly cloudy - 12.2 1003.7 5.2
18/02:13am NNW 24 34 - - - - - Partly cloudy - 12.1 1003.4 5.2
18/02:00am NNW 26 32 - - - - - Partly cloudy - 12.2 1004.1 5.2
18/01:43am NNW 22 32 - - - - - Partly cloudy - 12.1 1004.6 5.2
18/01:30am N 20 27 - - - - - Partly cloudy - 12.1 1004.7 5.2
18/01:00am N 19 25 - - - - - Partly cloudy - 12.2 1005.6 5.2
18/12:30am NNW 21 27 - - - - - Partly cloudy - 12.1 1006.3 5.0
18/12:00am N 22 29 - - - - - Mostly cloudy - 12.1 1006.6 5.0
 
Date/Time
EST
Wind Sea
Height
m
Swell Vis
km
Cloud Weather Temp
°C
Press
MSL
hPa
Rain since
9am
mm
Dir  Spd
kts
Gust
kts
Height
m
Period
s
Dir
17/11:30pm N 25 31 - - - - - Cloudy - 12.3 1006.8 5.0
17/11:00pm N 24 30 - - - - - Cloudy - 12.1 1007.4 5.0
17/10:30pm N 24 31 - - - - - Cloudy - 12.1 1007.8 5.0
17/10:00pm N 23 30 - - - - - Partly cloudy - 11.8 1008.2 5.0
17/09:30pm N 23 30 - - - - - Partly cloudy - 11.5 1008.3 5.0
17/09:00pm N 23 29 - - - - - Cloudy Recent precip. 11.5 1008.7 4.8
17/08:43pm N 24 38 - - - - - Partly cloudy - 11.5 1009.2 4.6
17/08:30pm N 22 28 - - - - - Partly cloudy - 11.5 1009.4 4.4
17/08:00pm N 22 27 - - - - - Partly cloudy - 11.3 1009.0 4.4
17/07:30pm N 22 27 - - - - - Partly cloudy - 11.2 1009.1 4.2
17/07:00pm N 20 26 - - - - - Partly cloudy - 10.8 1009.7 3.8
17/06:58pm N 21 31 - - - - - Partly cloudy - 10.9 1009.6 3.8
17/06:30pm N 19 24 - - - - - Partly cloudy - 10.9 1010.1 2.6
17/06:00pm N 20 24 - - - - - Cloudy Rain 10.8 1010.0 1.8
17/05:30pm N 19 25 - - - - - Partly cloudy - 11.0 1010.4 0.6
17/05:00pm N 19 24 - - - - - Partly cloudy - 11.3 1010.4 0.0
17/04:30pm N 18 23 - - - - - Partly cloudy - 11.5 1011.2 0.0
17/04:00pm N 17 22 - - - - - Cloudy - 11.3 1011.4 0.0
17/03:30pm N 17 22 - - - - - Partly cloudy - 11.6 1011.7 0.0
17/03:00pm N 17 21 - - - - - Cloudy - 11.3 1012.0 0.0
17/02:30pm N 17 23 - - - - - Partly cloudy - 11.7 1012.6 0.0
17/02:00pm N 20 24 - - - - - Partly cloudy - 11.7 1011.6 0.0
17/01:30pm NNE 18 23 - - - - - Partly cloudy - 11.5 1012.0 0.0
17/01:00pm N 17 21 - - - - - Partly cloudy - 11.6 1013.2 0.0
17/12:30pm N 17 21 - - - - - Partly cloudy - 11.7 1013.9 0.0
17/12:00pm N 17 23 - - - - - Cloudy - 11.8 1015.0 0.0
17/11:30am N 15 18 - - - - - Partly cloudy - 11.5 1015.2 0.0
17/11:00am N 14 19 - - - - - Partly cloudy - 11.7 1015.9 0.0
17/10:30am N 13 16 - - - - - Cloudy - 11.4 1016.2 0.0
17/10:00am N 13 16 - - - - - Partly cloudy - 11.1 1016.6 0.0
17/09:30am N 11 15 - - - - - Cloudy - 10.9 1016.5 0.0
17/09:00am NNW 11 14 - - - - - Cloudy - 11.0 1016.8 1.0
17/08:30am NNW 9 11 - - - - - Cloudy - 10.7 1016.3 1.0
17/08:00am NW 9 13 - - - - - Cloudy - 10.4 1016.6 1.0
17/07:30am NW 9 14 - - - - - Partly cloudy - 9.9 1016.3 1.0
17/07:00am WNW 8 10 - - - - - Cloudy - 9.9 1016.4 1.0
17/06:30am WNW 9 14 - - - - - Cloudy - 10.2 1016.3 1.0
17/06:00am WNW 11 15 - - - - - Mostly cloudy - 10.2 1016.4 1.0
17/05:30am WNW 9 13 - - - - - Cloudy - 10.1 1016.5 1.0
17/05:00am W 10 13 - - - - - Cloudy - 10.1 1016.6 1.0
17/04:30am W 10 13 - - - - - Cloudy - 9.9 1016.7 1.0
17/04:00am W 7 11 - - - - - Cloudy - 9.8 1016.2 1.0
17/03:30am W 6 9 - - - - - Partly cloudy - 9.6 1015.9 1.0
17/03:00am W 8 12 - - - - - Partly cloudy - 9.6 1016.1 1.0
17/02:30am WSW 8 12 - - - - - Partly cloudy - 9.6 1016.1 1.0
17/02:00am SW 8 13 - - - - - Cloudy - 9.6 1016.2 1.0
17/01:30am WSW 6 10 - - - - - Cloudy - 9.6 1016.3 1.0
17/01:00am SW 6 10 - - - - - Partly cloudy - 9.4 1016.4 1.0
17/12:30am SW 10 15 - - - - - Cloudy - 9.6 1016.3 1.0
17/12:00am SW 11 15 - - - - - Cloudy - 9.9 1016.5 1.0
 
Date/Time
EST
Wind Sea
Height
m
Swell Vis
km
Cloud Weather Temp
°C
Press
MSL
hPa
Rain since
9am
mm
Dir  Spd
kts
Gust
kts
Height
m
Period
s
Dir
16/11:30pm SSW 11 15 - - - - - Cloudy - 9.8 1016.4 1.0
16/11:22pm SW 12 18 - - - - - Cloudy - 9.9 1016.4 1.0
16/11:00pm SSW 13 17 - - - - - Cloudy - 10.0 1016.5 1.0
16/10:30pm SW 15 20 - - - - - Cloudy - 9.8 1016.6 1.0
16/10:00pm SSW 15 21 - - - - - Partly cloudy - 9.8 1016.2 1.0
16/09:30pm SSW 16 23 - - - - - Partly cloudy - 9.7 1016.1 1.0
16/09:00pm SW 21 25 - - - - - Cloudy - 10.1 1016.3 1.0
16/08:30pm SW 19 23 - - - - - Partly cloudy - 10.0 1016.0 1.0
16/08:00pm SW 18 24 - - - - - Partly cloudy - 9.9 1015.9 1.0
16/07:35pm SSW 17 27 - - - - - Cloudy - 9.9 1015.7 1.0
16/07:30pm SW 19 27 - - - - - Cloudy - 10.1 1015.7 1.0
16/07:00pm SW 19 25 - - - - - Partly cloudy - 10.1 1015.8 1.0
16/06:54pm SW 21 25 - - - - - Partly cloudy - 10.1 1015.8 1.0
16/06:36pm SW 23 29 - - - - - Partly cloudy - 10.1 1015.9 1.0
16/06:30pm SW 21 27 - - - - - Partly cloudy - 10.1 1015.9 1.0
16/06:00pm SW 24 29 - - - - - Cloudy - 10.2 1015.4 1.0
16/05:30pm SW 21 26 - - - - - Partly cloudy - 10.5 1014.5 1.0
16/05:00pm SSW 17 23 - - - - - Partly cloudy - 10.4 1013.2 1.0
16/04:30pm SSW 18 26 - - - - - Partly cloudy - 10.7 1012.8 1.0
16/04:00pm SSW 19 25 - - - - - Partly cloudy - 11.0 1012.4 1.0
16/03:30pm SSW 17 24 - - - - - Partly cloudy - 11.2 1012.4 1.0
16/03:00pm SW 22 28 - - - - - Cloudy - 11.1 1012.1 1.0
16/02:30pm SW 24 32 - - - - - Partly cloudy - 10.6 1012.0 1.0
16/02:00pm SW 25 31 - - - - - Partly cloudy - 10.9 1011.8 1.0
16/01:30pm SW 25 34 - - - - - Partly cloudy - 10.8 1011.6 1.0
16/01:00pm SW 25 30 - - - - - Partly cloudy - 11.1 1011.1 1.0
16/12:30pm SW 26 32 - - - - - Partly cloudy - 11.2 1011.0 1.0
16/12:00pm SW 27 34 - - - - - Cloudy Recent precip. 11.2 1011.2 0.8
16/11:30am SW 27 35 - - - - - Partly cloudy - 11.1 1011.0 0.8
16/11:00am SW 26 34 - - - - - Partly cloudy - 10.9 1010.7 0.6
16/10:30am SW 24 32 - - - - - Partly cloudy - 10.8 1010.2 0.4
16/10:14am SW 24 31 - - - - - Partly cloudy - 10.9 1010.1 0.4
16/10:00am SW 26 32 - - - - - Partly cloudy - 11.4 1009.8 0.0
16/09:30am SW 26 32 - - - - - Partly cloudy - 11.4 1009.4 0.0
16/09:21am SW 21 31 - - - - - Partly cloudy - 11.5 1009.2 0.0
16/09:00am SW 25 33 - - - - - Cloudy Recent precip. 10.7 1009.0 1.0
16/08:37am SW 21 28 - - - - - Partly cloudy - 11.1 1008.7 0.8
16/08:30am SW 21 30 - - - - - Partly cloudy - 10.8 1008.4 0.8

Other formats

Comma delimited format used in spreadsheet applications
http://www.bom.gov.au/fwo/IDT60701/IDT60701.95954.axf

JavaScript Object Notation format (JSON) in row-major order
http://www.bom.gov.au/fwo/IDT60701/IDT60701.95954.json

Data quality

Most of these data are generated automatically and are frequently updated. Quality checks on data are not normally performed. It is possible for incorrect values to appear. Refer to information at About Latest Weather Observations and please check the disclaimer before using these data.